createdAt,value
2023-05-25T00:00:49.788Z,11.46
2023-05-25T00:03:27.919Z,11.42
2023-05-25T00:05:54.636Z,11.38
2023-05-25T00:08:21.265Z,11.33
2023-05-25T00:10:48.545Z,11.27
2023-05-25T00:13:15.018Z,11.24
2023-05-25T00:15:41.575Z,11.19
2023-05-25T00:18:08.247Z,11.12
2023-05-25T00:20:35.405Z,11.07
2023-05-25T00:23:02.495Z,11.00
2023-05-25T00:25:29.590Z,10.94
2023-05-25T00:27:56.188Z,10.92
2023-05-25T00:30:22.746Z,10.84
2023-05-25T00:32:49.276Z,10.81
2023-05-25T00:35:15.857Z,10.80
2023-05-25T00:37:42.380Z,10.77
2023-05-25T00:40:14.203Z,10.74
2023-05-25T00:42:41.092Z,10.71
2023-05-25T00:45:08.113Z,10.67
2023-05-25T00:47:34.639Z,10.66
2023-05-25T00:50:02.077Z,10.64
2023-05-25T00:52:28.868Z,10.61
2023-05-25T00:54:58.242Z,10.58
2023-05-25T00:57:28.072Z,10.53
2023-05-25T00:59:58.016Z,10.51
2023-05-25T01:02:26.369Z,10.48
2023-05-25T01:04:59.792Z,10.43
2023-05-25T01:07:28.461Z,10.38
2023-05-25T01:10:00.076Z,10.36
2023-05-25T01:12:32.090Z,10.33
2023-05-25T01:15:00.534Z,10.30
2023-05-25T01:17:29.063Z,10.26
2023-05-25T01:20:09.651Z,10.23
2023-05-25T01:23:02.764Z,10.18
2023-05-25T01:25:45.043Z,10.12
2023-05-25T01:28:18.462Z,10.09
2023-05-25T01:30:48.776Z,10.07
2023-05-25T01:33:20.111Z,10.06
2023-05-25T01:35:47.808Z,10.03
2023-05-25T01:38:15.030Z,10.00
2023-05-25T01:40:41.556Z,9.97
2023-05-25T01:43:08.023Z,9.93
2023-05-25T01:45:35.527Z,9.89
2023-05-25T01:48:12.953Z,9.88
2023-05-25T01:50:51.499Z,9.85
2023-05-25T01:53:30.487Z,9.82
2023-05-25T01:56:01.349Z,9.79
2023-05-25T01:58:34.892Z,9.77
2023-05-25T02:01:04.368Z,9.75
2023-05-25T02:03:31.256Z,9.74
2023-05-25T02:05:58.281Z,9.70
2023-05-25T02:08:24.887Z,9.70
2023-05-25T02:10:51.489Z,9.67
2023-05-25T02:13:18.166Z,9.64
2023-05-25T02:15:44.855Z,9.61
2023-05-25T02:18:13.706Z,9.60
2023-05-25T02:20:40.503Z,9.58
2023-05-25T02:23:07.111Z,9.54
2023-05-25T02:25:35.917Z,9.51
2023-05-25T02:28:02.453Z,9.48
2023-05-25T02:30:28.898Z,9.45
2023-05-25T02:32:56.546Z,9.40
2023-05-25T02:35:23.269Z,9.39
2023-05-25T02:37:51.141Z,9.36
2023-05-25T02:40:17.998Z,9.34
2023-05-25T02:42:44.782Z,9.33
2023-05-25T02:45:11.566Z,9.31
2023-05-25T02:47:38.276Z,9.29
2023-05-25T02:50:05.807Z,9.26
2023-05-25T02:52:32.707Z,9.24
2023-05-25T02:54:59.249Z,9.23
2023-05-25T02:57:25.940Z,9.23
2023-05-25T02:59:52.758Z,9.20
2023-05-25T03:02:21.058Z,9.20
2023-05-25T03:04:49.828Z,9.19
2023-05-25T03:07:16.420Z,9.16
2023-05-25T03:09:42.971Z,9.16
2023-05-25T03:12:09.462Z,9.14
2023-05-25T03:14:35.912Z,9.12
2023-05-25T03:17:02.384Z,9.14
2023-05-25T03:19:28.871Z,9.14
2023-05-25T03:21:55.436Z,9.13
2023-05-25T03:24:24.210Z,9.15
2023-05-25T03:26:51.039Z,9.15
2023-05-25T03:29:17.585Z,9.13
2023-05-25T03:31:44.057Z,9.11
2023-05-25T03:34:10.634Z,9.09
2023-05-25T03:36:38.931Z,9.06
2023-05-25T03:39:07.076Z,9.04
2023-05-25T03:41:33.551Z,9.01
2023-05-25T03:43:59.986Z,9.00
2023-05-25T03:46:26.541Z,8.97
2023-05-25T03:48:56.034Z,8.96
2023-05-25T03:51:22.625Z,8.93
2023-05-25T03:53:49.078Z,8.92
2023-05-25T03:56:15.609Z,8.91
2023-05-25T03:58:42.071Z,8.90
2023-05-25T04:01:10.421Z,8.88
2023-05-25T04:03:37.214Z,8.84
2023-05-25T04:06:04.161Z,8.83
2023-05-25T04:08:30.718Z,8.81
2023-05-25T04:10:57.468Z,8.84
2023-05-25T04:13:24.826Z,8.87
2023-05-25T04:15:51.368Z,8.87
2023-05-25T04:18:19.049Z,8.88
2023-05-25T04:20:46.460Z,8.88
2023-05-25T04:23:12.907Z,8.92
2023-05-25T04:25:39.403Z,8.95
2023-05-25T04:28:08.366Z,8.97
2023-05-25T04:30:36.183Z,9.02
2023-05-25T04:33:03.068Z,9.05
2023-05-25T04:35:31.643Z,9.07
2023-05-25T04:38:00.642Z,9.09
2023-05-25T04:40:28.048Z,9.12
2023-05-25T04:42:55.847Z,9.14
2023-05-25T04:45:25.452Z,9.21
2023-05-25T04:47:52.593Z,9.27
2023-05-25T04:50:19.352Z,9.33
2023-05-25T04:52:45.855Z,9.37
2023-05-25T04:55:12.537Z,9.43
2023-05-25T04:57:39.476Z,9.50
2023-05-25T05:00:09.676Z,9.60
2023-05-25T05:02:38.106Z,9.67
2023-05-25T05:05:05.115Z,9.77
2023-05-25T05:07:31.748Z,9.88
2023-05-25T05:09:58.283Z,9.97
2023-05-25T05:12:24.782Z,10.06
2023-05-25T05:14:51.210Z,10.14
2023-05-25T05:17:17.724Z,10.25
2023-05-25T05:19:44.313Z,10.33
2023-05-25T05:22:13.225Z,10.43
2023-05-25T05:24:39.704Z,10.46
2023-05-25T05:27:06.195Z,10.46
2023-05-25T05:29:34.220Z,10.51
2023-05-25T05:32:00.909Z,10.65
2023-05-25T05:34:27.376Z,10.76
2023-05-25T05:36:57.907Z,10.87
2023-05-25T05:39:26.504Z,10.94
2023-05-25T05:41:53.874Z,11.04
2023-05-25T05:44:27.833Z,11.13
2023-05-25T05:47:02.033Z,11.32
2023-05-25T05:49:29.574Z,11.39
2023-05-25T05:51:56.534Z,11.60
2023-05-25T05:54:23.334Z,11.79
2023-05-25T05:56:50.929Z,12.22
2023-05-25T05:59:17.657Z,12.75
2023-05-25T06:01:44.296Z,13.32
2023-05-25T06:04:10.801Z,13.86
2023-05-25T06:06:37.730Z,14.22
2023-05-25T06:09:06.893Z,14.38
2023-05-25T06:11:37.584Z,14.51
2023-05-25T06:14:04.137Z,13.98
2023-05-25T06:16:30.959Z,13.41
2023-05-25T06:18:59.374Z,13.09
2023-05-25T06:21:26.230Z,12.78
2023-05-25T06:23:52.816Z,12.50
2023-05-25T06:26:19.348Z,12.45
2023-05-25T06:28:47.693Z,12.43
2023-05-25T06:31:14.240Z,12.45
2023-05-25T06:33:40.800Z,12.50
2023-05-25T06:36:08.798Z,12.54
2023-05-25T06:38:35.639Z,12.60
2023-05-25T06:41:03.566Z,12.69
2023-05-25T06:43:30.480Z,12.76
2023-05-25T06:45:56.984Z,12.84
2023-05-25T06:48:23.486Z,12.86
2023-05-25T06:50:49.996Z,12.83
2023-05-25T06:53:17.367Z,12.85
2023-05-25T06:55:44.467Z,13.03
2023-05-25T06:58:11.751Z,13.09
2023-05-25T07:00:38.250Z,13.18
2023-05-25T07:03:04.800Z,13.24
2023-05-25T07:05:31.322Z,13.25
2023-05-25T07:07:57.878Z,13.32
2023-05-25T07:10:24.335Z,13.46
2023-05-25T07:12:50.855Z,13.65
2023-05-25T07:15:17.469Z,13.69
2023-05-25T07:17:44.151Z,13.76
2023-05-25T07:20:13.247Z,13.83
2023-05-25T07:22:39.903Z,13.94
2023-05-25T07:25:06.922Z,14.06
2023-05-25T07:27:33.879Z,14.10
2023-05-25T07:30:00.363Z,13.98
2023-05-25T07:32:26.888Z,14.04
2023-05-25T07:34:54.134Z,14.08
2023-05-25T07:37:20.594Z,14.09
2023-05-25T07:39:47.121Z,14.09
2023-05-25T07:42:13.657Z,14.05
2023-05-25T07:44:40.094Z,14.02
2023-05-25T07:47:07.029Z,14.09
2023-05-25T07:49:33.715Z,14.15
2023-05-25T07:52:00.204Z,14.22
2023-05-25T07:54:26.672Z,14.25
2023-05-25T07:56:53.284Z,14.25
2023-05-25T07:59:19.734Z,14.28
2023-05-25T08:01:46.222Z,14.26
2023-05-25T08:04:13.010Z,14.27
2023-05-25T08:06:40.090Z,14.31
2023-05-25T08:09:07.956Z,14.40
2023-05-25T08:11:34.450Z,14.45
2023-05-25T08:14:00.945Z,14.51
2023-05-25T08:16:27.699Z,14.56
2023-05-25T08:18:54.300Z,14.62
2023-05-25T08:21:20.967Z,14.76
2023-05-25T08:23:47.954Z,14.90
2023-05-25T08:26:34.216Z,14.95
2023-05-25T08:29:02.387Z,15.08
2023-05-25T08:31:28.999Z,15.22
2023-05-25T08:33:55.608Z,15.32
2023-05-25T08:36:22.718Z,15.36
2023-05-25T08:38:49.158Z,15.38
2023-05-25T08:41:16.903Z,15.45
2023-05-25T08:43:43.569Z,15.49
2023-05-25T08:46:10.059Z,15.50
2023-05-25T08:48:42.457Z,15.52
2023-05-25T08:51:12.097Z,15.57
2023-05-25T08:53:41.236Z,15.74
2023-05-25T08:56:12.906Z,15.81
2023-05-25T08:58:53.064Z,15.78
2023-05-25T09:01:22.516Z,15.82
2023-05-25T09:03:50.233Z,15.77
2023-05-25T09:06:17.416Z,15.71
2023-05-25T09:08:44.983Z,15.61
2023-05-25T09:11:16.293Z,15.43
2023-05-25T09:13:43.550Z,15.45
2023-05-25T09:16:11.240Z,15.54
2023-05-25T09:18:37.776Z,15.84
2023-05-25T09:21:04.541Z,16.05
2023-05-25T09:23:31.389Z,16.17
2023-05-25T09:25:58.446Z,16.38
2023-05-25T09:28:27.422Z,16.57
2023-05-25T09:30:56.011Z,16.64
2023-05-25T09:33:22.829Z,16.54
2023-05-25T09:35:49.380Z,16.56
2023-05-25T09:38:17.280Z,16.78
2023-05-25T09:40:44.902Z,16.93
2023-05-25T09:43:17.246Z,17.05
2023-05-25T09:45:48.959Z,17.05
2023-05-25T09:48:15.630Z,17.02
2023-05-25T09:50:43.287Z,16.98
2023-05-25T09:53:11.076Z,16.90
2023-05-25T09:55:52.311Z,16.89
2023-05-25T09:58:23.768Z,16.80
2023-05-25T10:00:54.611Z,16.78
2023-05-25T10:03:21.800Z,16.73
2023-05-25T10:08:19.856Z,16.64
2023-05-25T10:10:49.842Z,16.76
2023-05-25T10:13:24.894Z,16.94
2023-05-25T10:15:54.598Z,17.13
2023-05-25T10:18:28.066Z,17.01
2023-05-25T10:21:03.178Z,17.06
2023-05-25T10:23:41.882Z,17.26
2023-05-25T10:26:09.915Z,17.34
2023-05-25T10:28:39.016Z,17.30
2023-05-25T10:31:05.918Z,17.30
2023-05-25T10:33:33.415Z,17.33
2023-05-25T10:36:09.942Z,17.40
2023-05-25T10:38:40.425Z,17.67
2023-05-25T10:41:10.884Z,17.80
2023-05-25T10:43:38.747Z,17.80
2023-05-25T10:46:08.915Z,17.82
2023-05-25T10:48:40.187Z,17.76
2023-05-25T10:51:08.985Z,17.77
2023-05-25T10:53:37.707Z,17.65
2023-05-25T10:56:06.411Z,17.64
2023-05-25T10:58:33.474Z,17.62
2023-05-25T11:01:01.506Z,17.65
2023-05-25T11:03:57.109Z,17.80
2023-05-25T11:06:40.449Z,17.93
2023-05-25T11:09:07.918Z,17.99
2023-05-25T11:11:43.489Z,18.12
2023-05-25T11:14:22.875Z,18.28
2023-05-25T11:17:18.214Z,18.38
2023-05-25T11:19:56.204Z,18.24
2023-05-25T11:22:35.402Z,18.13
2023-05-25T11:25:23.029Z,18.05
2023-05-25T11:27:51.040Z,18.06
2023-05-25T11:30:18.279Z,18.17
2023-05-25T11:32:51.132Z,18.38
2023-05-25T11:35:17.707Z,18.38
2023-05-25T11:37:50.820Z,18.43
2023-05-25T11:40:17.411Z,18.26
2023-05-25T11:42:48.328Z,18.25
2023-05-25T11:45:15.046Z,18.30
2023-05-25T11:47:41.726Z,18.37
2023-05-25T11:50:14.943Z,18.35
2023-05-25T11:52:41.591Z,18.41
2023-05-25T11:55:13.328Z,18.38
2023-05-25T11:57:40.620Z,18.34
2023-05-25T12:00:11.291Z,18.27
2023-05-25T12:02:39.504Z,18.28
2023-05-25T12:05:08.720Z,18.43
2023-05-25T12:07:44.015Z,18.45
2023-05-25T12:10:12.779Z,18.48
2023-05-25T12:12:42.550Z,18.52
2023-05-25T12:15:14.853Z,18.73
2023-05-25T12:17:43.427Z,18.86
2023-05-25T12:20:11.878Z,18.99
2023-05-25T12:22:40.108Z,19.11
2023-05-25T12:25:08.666Z,19.16
2023-05-25T12:27:35.205Z,19.17
2023-05-25T12:30:01.730Z,19.15
2023-05-25T12:32:28.368Z,18.98
2023-05-25T12:35:05.786Z,18.94
2023-05-25T12:37:33.487Z,18.93
2023-05-25T12:40:00.653Z,18.81
2023-05-25T12:42:27.549Z,18.76
2023-05-25T12:44:57.904Z,18.70
2023-05-25T12:47:27.894Z,18.69
2023-05-25T12:50:11.288Z,18.90
2023-05-25T12:52:39.889Z,18.94
2023-05-25T12:55:32.958Z,19.00
2023-05-25T12:58:02.735Z,18.98
2023-05-25T13:00:41.002Z,18.92
2023-05-25T13:03:08.294Z,18.91
2023-05-25T13:05:37.091Z,18.90
2023-05-25T13:08:04.448Z,18.98
2023-05-25T13:10:32.811Z,18.96
2023-05-25T13:13:00.613Z,19.04
2023-05-25T13:15:27.452Z,18.90
2023-05-25T13:17:56.284Z,18.79
2023-05-25T13:20:25.118Z,19.18
2023-05-25T13:22:53.141Z,19.49
2023-05-25T13:25:22.146Z,19.47
2023-05-25T13:27:50.480Z,19.38
2023-05-25T13:30:17.713Z,19.27
2023-05-25T13:32:44.929Z,19.20
2023-05-25T13:35:18.452Z,19.19
2023-05-25T13:37:45.870Z,19.06
2023-05-25T13:40:12.473Z,19.02
2023-05-25T13:42:38.986Z,18.96
2023-05-25T13:45:06.054Z,18.91
2023-05-25T13:47:32.770Z,18.88
2023-05-25T13:49:59.327Z,18.83
2023-05-25T13:52:27.005Z,19.08
2023-05-25T13:54:53.463Z,19.33
2023-05-25T13:57:21.359Z,19.45
2023-05-25T13:59:47.841Z,19.31
2023-05-25T14:02:14.525Z,19.30
2023-05-25T14:04:41.408Z,19.34
2023-05-25T14:07:07.917Z,19.24
2023-05-25T14:09:34.440Z,19.21
2023-05-25T14:12:01.524Z,19.24
2023-05-25T14:14:32.232Z,19.37
2023-05-25T14:17:00.387Z,19.53
2023-05-25T14:19:27.160Z,19.65
2023-05-25T14:22:11.106Z,19.56
2023-05-25T14:24:38.791Z,19.49
2023-05-25T14:27:07.116Z,19.44
2023-05-25T14:29:33.931Z,19.63
2023-05-25T14:32:00.619Z,19.60
2023-05-25T14:34:27.970Z,19.58
2023-05-25T14:36:54.467Z,19.69
2023-05-25T14:39:21.020Z,19.76
2023-05-25T14:41:47.523Z,19.90
2023-05-25T14:44:14.040Z,20.06
2023-05-25T14:46:40.720Z,20.04
2023-05-25T14:49:07.271Z,20.06
2023-05-25T14:51:33.721Z,20.08
2023-05-25T14:54:03.867Z,19.96
2023-05-25T14:56:30.692Z,20.01
2023-05-25T14:58:57.428Z,20.09
2023-05-25T15:01:25.499Z,20.06
2023-05-25T15:03:52.560Z,20.09
2023-05-25T15:06:19.533Z,20.10
2023-05-25T15:08:46.169Z,20.23
2023-05-25T15:11:12.715Z,20.32
2023-05-25T15:13:40.731Z,20.22
2023-05-25T15:16:11.243Z,20.24
2023-05-25T15:18:37.995Z,20.21
2023-05-25T15:21:04.612Z,20.07
2023-05-25T15:23:32.023Z,19.99
2023-05-25T15:26:03.101Z,19.90
2023-05-25T15:28:32.422Z,19.96
2023-05-25T15:31:01.717Z,20.10
2023-05-25T15:33:43.710Z,20.17
2023-05-25T15:36:15.138Z,20.20
2023-05-25T15:38:43.252Z,20.18
2023-05-25T15:41:09.878Z,20.09
2023-05-25T15:43:36.346Z,20.17
2023-05-25T15:46:02.844Z,20.27
2023-05-25T15:48:29.409Z,20.36
2023-05-25T15:50:55.866Z,20.50
2023-05-25T15:53:22.764Z,20.43
2023-05-25T15:55:49.241Z,20.35
2023-05-25T15:58:17.744Z,20.21
2023-05-25T16:00:44.265Z,20.12
2023-05-25T16:03:10.783Z,20.08
2023-05-25T16:05:37.444Z,20.36
2023-05-25T16:08:03.933Z,20.22
2023-05-25T16:10:30.483Z,20.15
2023-05-25T16:12:56.957Z,19.96
2023-05-25T16:15:23.743Z,19.94
2023-05-25T16:17:50.408Z,20.02
2023-05-25T16:20:17.015Z,20.15
2023-05-25T16:22:43.484Z,20.00
2023-05-25T16:25:10.472Z,20.01
2023-05-25T16:27:37.032Z,19.94
2023-05-25T16:30:03.916Z,19.95
2023-05-25T16:32:30.562Z,20.07
2023-05-25T16:34:57.028Z,19.90
2023-05-25T16:37:23.548Z,19.66
2023-05-25T16:39:50.042Z,19.62
2023-05-25T16:42:16.708Z,19.66
2023-05-25T16:44:43.185Z,19.74
2023-05-25T16:47:09.701Z,19.69
2023-05-25T16:49:36.172Z,19.63
2023-05-25T16:52:02.697Z,19.77
2023-05-25T16:54:29.617Z,19.97
2023-05-25T16:56:56.190Z,20.03
2023-05-25T16:59:22.695Z,20.13
2023-05-25T17:01:49.279Z,20.35
2023-05-25T17:04:15.958Z,20.36
2023-05-25T17:06:42.439Z,20.42
2023-05-25T17:09:09.189Z,20.36
2023-05-25T17:11:35.641Z,20.30
2023-05-25T17:14:02.099Z,20.25
2023-05-25T17:16:28.690Z,20.37
2023-05-25T17:18:55.350Z,20.52
2023-05-25T17:21:21.852Z,20.66
2023-05-25T17:23:49.153Z,20.70
2023-05-25T17:26:15.752Z,20.86
2023-05-25T17:28:42.237Z,20.90
2023-05-25T17:31:09.447Z,20.87
2023-05-25T17:33:36.104Z,20.90
2023-05-25T17:36:02.563Z,20.58
2023-05-25T17:38:29.049Z,20.30
2023-05-25T17:40:55.846Z,20.04
2023-05-25T17:43:22.477Z,19.75
2023-05-25T17:45:48.971Z,19.57
2023-05-25T17:48:15.799Z,19.65
2023-05-25T17:50:42.336Z,19.82
2023-05-25T17:53:08.873Z,19.68
2023-05-25T17:55:35.426Z,19.42
2023-05-25T17:58:01.929Z,19.26
2023-05-25T18:00:30.320Z,19.18
2023-05-25T18:02:56.872Z,18.82
2023-05-25T18:05:23.557Z,18.58
2023-05-25T18:07:50.124Z,18.48
2023-05-25T18:10:16.692Z,18.43
2023-05-25T18:12:46.096Z,18.20
2023-05-25T18:15:12.854Z,18.08
2023-05-25T18:17:39.400Z,18.04
2023-05-25T18:20:06.598Z,17.92
2023-05-25T18:22:33.134Z,17.74
2023-05-25T18:25:00.389Z,17.63
2023-05-25T18:27:26.856Z,17.55
2023-05-25T18:29:53.516Z,17.50
2023-05-25T18:32:20.116Z,17.40
2023-05-25T18:34:48.299Z,17.31
2023-05-25T18:37:15.227Z,17.23
2023-05-25T18:39:41.977Z,17.11
2023-05-25T18:42:08.759Z,16.93
2023-05-25T18:44:36.479Z,16.88
2023-05-25T18:47:02.947Z,16.82
2023-05-25T18:49:34.470Z,16.69
2023-05-25T18:52:01.622Z,16.62
2023-05-25T18:54:28.287Z,16.59
2023-05-25T18:56:55.003Z,16.47
2023-05-25T18:59:21.484Z,16.31
2023-05-25T19:01:48.170Z,16.26
2023-05-25T19:04:14.848Z,16.17
2023-05-25T19:06:41.544Z,16.09
2023-05-25T19:09:08.002Z,16.05
2023-05-25T19:11:34.495Z,15.96
2023-05-25T19:14:00.960Z,15.95
2023-05-25T19:16:27.551Z,15.94
2023-05-25T19:18:54.087Z,15.92
2023-05-25T19:21:20.689Z,15.83
2023-05-25T19:23:47.189Z,15.77
2023-05-25T19:26:13.711Z,15.70
2023-05-25T19:28:40.417Z,15.64
2023-05-25T19:31:06.885Z,15.56
2023-05-25T19:33:33.457Z,15.47
2023-05-25T19:36:00.109Z,15.43
2023-05-25T19:38:31.439Z,15.34
2023-05-25T19:41:04.285Z,15.29
2023-05-25T19:43:30.872Z,15.27
2023-05-25T19:45:57.441Z,15.23
2023-05-25T19:48:25.285Z,15.22
2023-05-25T19:50:53.172Z,15.13
2023-05-25T19:53:19.657Z,15.06
2023-05-25T19:55:46.380Z,14.99
2023-05-25T19:58:13.009Z,14.95
2023-05-25T20:00:39.491Z,14.94
2023-05-25T20:03:06.150Z,14.89
2023-05-25T20:05:32.743Z,14.83
2023-05-25T20:07:59.310Z,14.74
2023-05-25T20:10:25.888Z,14.70
2023-05-25T20:12:52.422Z,14.65
2023-05-25T20:15:18.896Z,14.56
2023-05-25T20:17:45.452Z,14.53
2023-05-25T20:20:12.154Z,14.48
2023-05-25T20:22:38.740Z,14.42
2023-05-25T20:25:05.633Z,14.38
2023-05-25T20:27:32.129Z,14.31
2023-05-25T20:29:58.669Z,14.27
2023-05-25T20:32:25.206Z,14.24
2023-05-25T20:34:52.227Z,14.22
2023-05-25T20:37:18.706Z,14.19
2023-05-25T20:39:45.295Z,14.12
2023-05-25T20:42:13.909Z,14.07
2023-05-25T20:44:40.537Z,14.04
2023-05-25T20:47:07.182Z,14.02
2023-05-25T20:49:33.718Z,13.98
2023-05-25T20:52:00.239Z,13.89
2023-05-25T20:54:26.881Z,13.83
2023-05-25T20:56:53.534Z,13.76
2023-05-25T20:59:20.121Z,13.70
2023-05-25T21:01:46.620Z,13.64
2023-05-25T21:04:13.258Z,13.59
2023-05-25T21:06:40.065Z,13.50
2023-05-25T21:09:06.576Z,13.42
2023-05-25T21:11:33.196Z,13.42
2023-05-25T21:13:59.675Z,13.34
2023-05-25T21:16:26.297Z,13.29
2023-05-25T21:18:52.773Z,13.29
2023-05-25T21:21:19.335Z,13.19
2023-05-25T21:23:46.072Z,13.20
2023-05-25T21:26:12.617Z,13.18
2023-05-25T21:28:39.071Z,13.14
2023-05-25T21:31:05.669Z,13.08
2023-05-25T21:33:35.762Z,13.04
2023-05-25T21:36:02.876Z,13.00
2023-05-25T21:38:29.418Z,12.88
2023-05-25T21:40:56.037Z,12.83
2023-05-25T21:43:22.567Z,12.81
2023-05-25T21:45:49.048Z,12.81
2023-05-25T21:48:15.541Z,12.78
2023-05-25T21:50:42.011Z,12.73
2023-05-25T21:53:08.468Z,12.68
2023-05-25T21:55:34.915Z,12.60
2023-05-25T21:58:01.405Z,12.60
2023-05-25T22:00:27.892Z,12.59
2023-05-25T22:02:54.508Z,12.56
2023-05-25T22:05:21.112Z,12.52
2023-05-25T22:07:47.677Z,12.47
2023-05-25T22:10:14.270Z,12.40
2023-05-25T22:12:40.792Z,12.32
2023-05-25T22:15:07.853Z,12.28
2023-05-25T22:17:34.424Z,12.21
2023-05-25T22:20:07.948Z,12.11
2023-05-25T22:22:34.777Z,12.09
2023-05-25T22:25:01.273Z,12.02
2023-05-25T22:27:27.907Z,12.01
2023-05-25T22:29:54.378Z,12.01
2023-05-25T22:32:21.041Z,12.03
2023-05-25T22:34:47.591Z,11.97
2023-05-25T22:37:14.219Z,11.91
2023-05-25T22:39:40.683Z,11.85
2023-05-25T22:42:07.338Z,11.84
2023-05-25T22:44:36.031Z,11.82
2023-05-25T22:47:03.012Z,11.78
2023-05-25T22:49:29.608Z,11.73
2023-05-25T22:51:56.147Z,11.70
2023-05-25T22:54:22.576Z,11.66
2023-05-25T22:56:49.047Z,11.66
2023-05-25T22:59:15.827Z,11.62
2023-05-25T23:01:42.617Z,11.60
2023-05-25T23:04:09.313Z,11.60
2023-05-25T23:06:36.573Z,11.53
2023-05-25T23:09:03.177Z,11.53
2023-05-25T23:11:29.623Z,11.50
2023-05-25T23:13:56.077Z,11.43
2023-05-25T23:16:22.708Z,11.39
2023-05-25T23:18:49.278Z,11.38
2023-05-25T23:21:16.180Z,11.37
2023-05-25T23:23:42.686Z,11.32
2023-05-25T23:26:09.153Z,11.32
2023-05-25T23:28:35.775Z,11.29
2023-05-25T23:31:02.307Z,11.25
2023-05-25T23:33:29.313Z,11.24
2023-05-25T23:35:55.968Z,11.20
2023-05-25T23:38:22.512Z,11.16
2023-05-25T23:40:48.970Z,11.11
2023-05-25T23:43:16.312Z,11.07
2023-05-25T23:45:43.115Z,11.08
2023-05-25T23:48:09.825Z,11.04
2023-05-25T23:50:36.414Z,11.01
2023-05-25T23:53:02.956Z,11.01
2023-05-25T23:55:30.592Z,10.93
2023-05-25T23:57:57.057Z,10.92
